Statesboro, GA

12:12 AM EST on February 11, 2016 (GMT -0500)
Savannah Avenue | | Change Station
CLOSE
Current Station
Personal Weather Station
Location: Statesboro, GA
Elevation: 253 ft
Nearby Weather Stations
Active Advisory: Flood Warning

Elev 253 ft 32.44 °N, 81.78 °W | Updated 2 seconds ago

Clear
Clear
34.5 °F
Feels Like 34 °F
N
0.0
Wind Variable Wind from South
Gusts 0.0 mph

Today
High -- | Low -- °F
--% Chance of Precip.
Yesterday
High -- | Low -- °F
Precip. -- in
Pressure 30.19 in
Visibility 10.0 miles
Clouds Scattered Clouds 7000 ft
Windchill 34 °F
Dew Point 16 °F
Humidity 46%
Rainfall 0.00 in
Snow Depth Not available.
7:14 AM 6:09 PM
Waxing Crescent, 9% visible
METAR KTBR 110455Z AUTO 28005KT 10SM SCT070 04/M11 A3019 RMK AO2 T00361106
Pressure 30.19 in
Visibility 10.0 miles
Clouds Scattered Clouds 7000 ft
Windchill 34 °F
Dew Point 16 °F
Humidity 46%
Rainfall 0.00 in
Snow Depth Not available.
7:14 AM 6:09 PM
Waxing Crescent, 9% visible
METAR KTBR 110455Z AUTO 28005KT 10SM SCT070 04/M11 A3019 RMK AO2 T00361106

10-Day Weather Forecast

Almanac

Astronomy

Feb. 11, 2016 Rise Set
Actual Time
Civil Twilight
Nautical Twilight
Astronomical Twilight
Moon
Length of Visible Light
Length of Day
Tomorrow will be .
, % of the Moon is Illuminated

Today's Extremes

State Highs State Lows

Community

WunderPhotos

Upload Photos

1,892,023 photos uploaded!

WunderBlog® & News

Nearby

Air Quality

  Air Quality AQ Index Pollutant
Not available.

Snow Depth

Station Depth Elevation

Earthquake Activity

City Distance Mag. Time & Date
Minimum magnitude displayed is 2.5.

Coastal Water Temperatures

Place Temperature

Stations

Nearby Weather Stations

Station Location Temp. Windchill Dew Point Humidity Wind Precip. Elev Updated Type
                   

Watches & Warnings

Flood Warning
Issued: 8:18 PM EST Feb. 10, 2016 – National Weather Service

The Flood Warning continues for
the Ogeechee river near Eden.
* At 7 PM Wednesday the stage was 12.9 feet.
* Flood stage is 11.0 feet.
* Minor flooding is occurring.
* Forecast, the river will remain nearly steady or slowly fall.
* At 12.0 feet, water encroaches on some homes along dashers Landing
Road and Yarbrough Landing Road. Davis Landing Road also becomes
impassable.


Lat... Lon 3246 8160 3252 8152 3227 8140 3208 8133
          3206 8143 3223 8150